Raleigh, Canada
Current Conditions -  °F | °C
As of 5:00 PM on Thursday 29 Jan 2015 (Local Time) from CYAY Reporting Station
Clear Clear  
Wind Chill:   Ceiling: Unl
Heat Index: 19°   Visibility: 9mi
Dew Point: 16°   Wind: 9mph
Humidity: 86%   Direction: 240°WSW
Pressure: 30.09"   Gusts: NA
Location:  51.55°N, 55.72°W
Report Text: CYAY 292000Z AUTO 24008KT 9SM CLR M07/M09 A3009 RMK PRESRR SLP191
Loading
Personal Weather Stations






























Interactive Weather Map New forecast layout! Learn more

10-Day Weather Forecast

Advertisements
Track Severe Weather on mobile